sensor_id;sensor_type;location;lat;lon;timestamp;P1;durP1;ratioP1;P2;durP2;ratioP2
34673;SDS011;20879;55.668;37.858;2023-04-01T00:00:13;24.05;;;14.93;;
34673;SDS011;20879;55.668;37.858;2023-04-01T00:02:45;25.33;;;14.75;;
34673;SDS011;20879;55.668;37.858;2023-04-01T00:05:15;25.65;;;15.70;;
34673;SDS011;20879;55.668;37.858;2023-04-01T00:07:44;26.23;;;15.60;;
34673;SDS011;20879;55.668;37.858;2023-04-01T00:10:14;22.52;;;14.40;;
34673;SDS011;20879;55.668;37.858;2023-04-01T00:12:48;20.92;;;13.90;;
34673;SDS011;20879;55.668;37.858;2023-04-01T00:15:18;19.15;;;13.43;;
34673;SDS011;20879;55.668;37.858;2023-04-01T00:17:49;26.50;;;16.38;;
34673;SDS011;20879;55.668;37.858;2023-04-01T00:20:19;24.33;;;14.93;;
34673;SDS011;20879;55.668;37.858;2023-04-01T00:22:48;26.48;;;15.60;;
34673;SDS011;20879;55.668;37.858;2023-04-01T00:25:17;24.33;;;15.68;;
34673;SDS011;20879;55.668;37.858;2023-04-01T00:27:47;25.77;;;14.90;;
34673;SDS011;20879;55.668;37.858;2023-04-01T00:30:16;20.27;;;13.20;;
34673;SDS011;20879;55.668;37.858;2023-04-01T00:32:46;21.20;;;13.73;;
34673;SDS011;20879;55.668;37.858;2023-04-01T00:35:17;21.70;;;14.20;;
34673;SDS011;20879;55.668;37.858;2023-04-01T00:37:47;21.52;;;14.52;;
34673;SDS011;20879;55.668;37.858;2023-04-01T00:40:22;21.02;;;13.30;;
34673;SDS011;20879;55.668;37.858;2023-04-01T00:42:54;21.02;;;13.63;;
34673;SDS011;20879;55.668;37.858;2023-04-01T00:45:25;19.95;;;13.98;;
34673;SDS011;20879;55.668;37.858;2023-04-01T00:48:04;17.92;;;12.45;;
34673;SDS011;20879;55.668;37.858;2023-04-01T00:50:40;19.85;;;13.77;;
34673;SDS011;20879;55.668;37.858;2023-04-01T00:53:13;20.38;;;13.13;;
34673;SDS011;20879;55.668;37.858;2023-04-01T00:55:49;22.27;;;14.30;;
34673;SDS011;20879;55.668;37.858;2023-04-01T00:58:23;21.45;;;14.60;;
34673;SDS011;20879;55.668;37.858;2023-04-01T01:01:03;20.35;;;14.02;;
34673;SDS011;20879;55.668;37.858;2023-04-01T01:03:32;19.45;;;13.93;;
34673;SDS011;20879;55.668;37.858;2023-04-01T01:06:14;21.55;;;13.77;;
34673;SDS011;20879;55.668;37.858;2023-04-01T01:11:43;18.95;;;13.02;;
34673;SDS011;20879;55.668;37.858;2023-04-01T01:14:30;19.75;;;13.25;;
34673;SDS011;20879;55.668;37.858;2023-04-01T01:17:10;21.75;;;12.60;;
34673;SDS011;20879;55.668;37.858;2023-04-01T01:19:54;21.60;;;12.98;;
34673;SDS011;20879;55.668;37.858;2023-04-01T01:22:54;23.05;;;13.52;;
34673;SDS011;20879;55.668;37.858;2023-04-01T01:25:39;18.50;;;12.10;;
34673;SDS011;20879;55.668;37.858;2023-04-01T01:28:25;19.42;;;12.73;;
34673;SDS011;20879;55.668;37.858;2023-04-01T01:31:12;19.08;;;12.50;;
34673;SDS011;20879;55.668;37.858;2023-04-01T01:33:51;21.42;;;12.90;;
34673;SDS011;20879;55.668;37.858;2023-04-01T01:36:32;18.98;;;12.60;;
34673;SDS011;20879;55.668;37.858;2023-04-01T01:39:06;21.88;;;12.15;;
34673;SDS011;20879;55.668;37.858;2023-04-01T01:41:37;21.42;;;12.90;;
34673;SDS011;20879;55.668;37.858;2023-04-01T01:44:10;20.10;;;11.98;;
34673;SDS011;20879;55.668;37.858;2023-04-01T01:46:47;21.30;;;12.00;;
34673;SDS011;20879;55.668;37.858;2023-04-01T01:49:18;18.00;;;11.77;;
34673;SDS011;20879;55.668;37.858;2023-04-01T01:51:50;18.98;;;11.07;;
34673;SDS011;20879;55.668;37.858;2023-04-01T01:54:19;17.30;;;10.98;;
34673;SDS011;20879;55.668;37.858;2023-04-01T01:56:50;23.13;;;12.07;;
34673;SDS011;20879;55.668;37.858;2023-04-01T01:59:24;17.38;;;11.35;;
34673;SDS011;20879;55.668;37.858;2023-04-01T02:01:55;20.43;;;11.33;;
34673;SDS011;20879;55.668;37.858;2023-04-01T02:04:26;17.73;;;11.93;;
34673;SDS011;20879;55.668;37.858;2023-04-01T02:06:58;18.08;;;11.82;;
34673;SDS011;20879;55.668;37.858;2023-04-01T02:09:37;19.50;;;11.05;;
34673;SDS011;20879;55.668;37.858;2023-04-01T02:12:08;17.20;;;11.68;;
34673;SDS011;20879;55.668;37.858;2023-04-01T02:14:41;16.50;;;11.18;;
34673;SDS011;20879;55.668;37.858;2023-04-01T02:17:15;18.38;;;11.50;;
34673;SDS011;20879;55.668;37.858;2023-04-01T02:22:21;15.13;;;10.45;;
34673;SDS011;20879;55.668;37.858;2023-04-01T02:24:53;18.05;;;11.80;;
34673;SDS011;20879;55.668;37.858;2023-04-01T02:27:29;18.27;;;11.50;;
34673;SDS011;20879;55.668;37.858;2023-04-01T02:29:59;17.98;;;12.02;;
34673;SDS011;20879;55.668;37.858;2023-04-01T02:32:30;18.33;;;12.48;;
34673;SDS011;20879;55.668;37.858;2023-04-01T02:35:02;17.45;;;11.63;;
34673;SDS011;20879;55.668;37.858;2023-04-01T02:37:34;19.13;;;12.07;;
34673;SDS011;20879;55.668;37.858;2023-04-01T02:40:12;19.88;;;12.75;;
34673;SDS011;20879;55.668;37.858;2023-04-01T02:42:43;21.35;;;12.48;;
34673;SDS011;20879;55.668;37.858;2023-04-01T02:45:13;18.88;;;12.98;;
34673;SDS011;20879;55.668;37.858;2023-04-01T02:47:42;19.42;;;12.68;;
34673;SDS011;20879;55.668;37.858;2023-04-01T02:50:12;18.38;;;12.82;;
34673;SDS011;20879;55.668;37.858;2023-04-01T02:52:43;19.33;;;13.02;;
34673;SDS011;20879;55.668;37.858;2023-04-01T02:57:42;18.10;;;12.25;;
34673;SDS011;20879;55.668;37.858;2023-04-01T03:00:12;18.60;;;12.57;;
34673;SDS011;20879;55.668;37.858;2023-04-01T03:02:42;19.60;;;12.33;;
34673;SDS011;20879;55.668;37.858;2023-04-01T03:05:12;18.10;;;12.82;;
34673;SDS011;20879;55.668;37.858;2023-04-01T03:10:16;19.20;;;12.70;;
34673;SDS011;20879;55.668;37.858;2023-04-01T03:12:45;20.90;;;13.02;;
34673;SDS011;20879;55.668;37.858;2023-04-01T03:15:15;21.65;;;13.52;;
34673;SDS011;20879;55.668;37.858;2023-04-01T03:17:44;20.20;;;13.55;;
34673;SDS011;20879;55.668;37.858;2023-04-01T03:20:19;20.13;;;12.85;;
34673;SDS011;20879;55.668;37.858;2023-04-01T03:22:51;21.17;;;14.25;;
34673;SDS011;20879;55.668;37.858;2023-04-01T03:25:20;21.75;;;13.65;;
34673;SDS011;20879;55.668;37.858;2023-04-01T03:27:50;22.50;;;14.43;;
34673;SDS011;20879;55.668;37.858;2023-04-01T03:30:20;23.13;;;13.88;;
34673;SDS011;20879;55.668;37.858;2023-04-01T03:32:53;21.45;;;13.38;;
34673;SDS011;20879;55.668;37.858;2023-04-01T03:35:22;20.40;;;13.80;;
34673;SDS011;20879;55.668;37.858;2023-04-01T03:37:58;20.67;;;13.35;;
34673;SDS011;20879;55.668;37.858;2023-04-01T03:40:28;23.35;;;13.88;;
34673;SDS011;20879;55.668;37.858;2023-04-01T03:42:59;15.20;;;10.07;;
34673;SDS011;20879;55.668;37.858;2023-04-01T03:45:36;22.08;;;12.93;;
34673;SDS011;20879;55.668;37.858;2023-04-01T03:48:17;21.45;;;13.98;;
34673;SDS011;20879;55.668;37.858;2023-04-01T03:50:47;22.02;;;13.93;;
34673;SDS011;20879;55.668;37.858;2023-04-01T03:53:18;22.10;;;12.88;;
34673;SDS011;20879;55.668;37.858;2023-04-01T03:56:03;22.33;;;13.52;;
34673;SDS011;20879;55.668;37.858;2023-04-01T03:58:35;21.80;;;13.30;;
34673;SDS011;20879;55.668;37.858;2023-04-01T04:03:42;22.20;;;13.25;;
34673;SDS011;20879;55.668;37.858;2023-04-01T04:06:13;22.73;;;13.88;;
34673;SDS011;20879;55.668;37.858;2023-04-01T04:08:44;21.35;;;12.82;;
34673;SDS011;20879;55.668;37.858;2023-04-01T04:11:14;22.85;;;12.52;;
34673;SDS011;20879;55.668;37.858;2023-04-01T04:13:43;24.20;;;13.20;;
34673;SDS011;20879;55.668;37.858;2023-04-01T04:16:15;23.65;;;13.27;;
34673;SDS011;20879;55.668;37.858;2023-04-01T04:18:51;22.35;;;12.85;;
34673;SDS011;20879;55.668;37.858;2023-04-01T04:21:26;22.90;;;13.80;;
34673;SDS011;20879;55.668;37.858;2023-04-01T04:23:58;23.13;;;13.15;;
34673;SDS011;20879;55.668;37.858;2023-04-01T04:26:36;22.05;;;13.18;;
34673;SDS011;20879;55.668;37.858;2023-04-01T04:29:05;21.58;;;12.18;;
34673;SDS011;20879;55.668;37.858;2023-04-01T04:31:35;22.45;;;14.02;;
34673;SDS011;20879;55.668;37.858;2023-04-01T04:34:06;23.08;;;13.25;;
34673;SDS011;20879;55.668;37.858;2023-04-01T04:36:35;24.00;;;14.07;;
34673;SDS011;20879;55.668;37.858;2023-04-01T04:39:12;21.13;;;13.77;;
34673;SDS011;20879;55.668;37.858;2023-04-01T04:41:42;21.08;;;12.95;;
34673;SDS011;20879;55.668;37.858;2023-04-01T04:44:12;20.45;;;12.32;;
34673;SDS011;20879;55.668;37.858;2023-04-01T04:46:42;20.85;;;12.07;;
34673;SDS011;20879;55.668;37.858;2023-04-01T04:49:13;21.05;;;12.50;;
34673;SDS011;20879;55.668;37.858;2023-04-01T04:51:43;23.88;;;12.82;;
34673;SDS011;20879;55.668;37.858;2023-04-01T04:54:16;21.88;;;12.55;;
34673;SDS011;20879;55.668;37.858;2023-04-01T04:56:53;19.65;;;12.70;;
34673;SDS011;20879;55.668;37.858;2023-04-01T04:59:32;20.08;;;12.25;;
34673;SDS011;20879;55.668;37.858;2023-04-01T05:02:08;19.25;;;12.73;;
34673;SDS011;20879;55.668;37.858;2023-04-01T05:04:37;21.25;;;12.98;;
34673;SDS011;20879;55.668;37.858;2023-04-01T05:07:10;24.88;;;15.13;;
34673;SDS011;20879;55.668;37.858;2023-04-01T05:09:42;25.42;;;14.85;;
34673;SDS011;20879;55.668;37.858;2023-04-01T05:15:07;20.52;;;12.90;;
34673;SDS011;20879;55.668;37.858;2023-04-01T05:17:38;22.50;;;14.18;;
34673;SDS011;20879;55.668;37.858;2023-04-01T05:20:11;22.92;;;14.68;;
34673;SDS011;20879;55.668;37.858;2023-04-01T05:22:46;25.95;;;14.52;;
34673;SDS011;20879;55.668;37.858;2023-04-01T05:25:17;23.52;;;14.02;;
34673;SDS011;20879;55.668;37.858;2023-04-01T05:27:52;22.83;;;13.85;;
34673;SDS011;20879;55.668;37.858;2023-04-01T05:30:22;24.27;;;14.52;;
34673;SDS011;20879;55.668;37.858;2023-04-01T05:33:21;23.70;;;14.65;;
34673;SDS011;20879;55.668;37.858;2023-04-01T05:35:56;24.63;;;15.63;;
34673;SDS011;20879;55.668;37.858;2023-04-01T05:38:33;23.75;;;15.48;;
34673;SDS011;20879;55.668;37.858;2023-04-01T05:41:07;25.25;;;15.65;;
34673;SDS011;20879;55.668;37.858;2023-04-01T05:43:40;23.48;;;14.82;;
34673;SDS011;20879;55.668;37.858;2023-04-01T05:46:29;23.88;;;15.63;;
34673;SDS011;20879;55.668;37.858;2023-04-01T05:49:19;21.70;;;14.40;;
34673;SDS011;20879;55.668;37.858;2023-04-01T05:51:49;24.65;;;14.52;;
34673;SDS011;20879;55.668;37.858;2023-04-01T05:54:19;26.05;;;16.55;;
34673;SDS011;20879;55.668;37.858;2023-04-01T05:56:51;25.98;;;15.63;;
34673;SDS011;20879;55.668;37.858;2023-04-01T05:59:20;26.95;;;16.60;;
34673;SDS011;20879;55.668;37.858;2023-04-01T06:01:50;26.60;;;16.05;;
34673;SDS011;20879;55.668;37.858;2023-04-01T06:04:20;27.27;;;16.67;;
34673;SDS011;20879;55.668;37.858;2023-04-01T06:06:50;28.98;;;15.77;;
34673;SDS011;20879;55.668;37.858;2023-04-01T06:09:21;25.98;;;16.23;;
34673;SDS011;20879;55.668;37.858;2023-04-01T06:12:20;24.88;;;15.77;;
34673;SDS011;20879;55.668;37.858;2023-04-01T06:15:10;29.00;;;16.67;;
34673;SDS011;20879;55.668;37.858;2023-04-01T06:17:51;24.05;;;15.68;;
34673;SDS011;20879;55.668;37.858;2023-04-01T06:20:33;24.65;;;15.73;;
34673;SDS011;20879;55.668;37.858;2023-04-01T06:23:11;23.20;;;14.30;;
34673;SDS011;20879;55.668;37.858;2023-04-01T06:26:02;23.98;;;15.15;;
34673;SDS011;20879;55.668;37.858;2023-04-01T06:32:00;21.40;;;14.10;;
34673;SDS011;20879;55.668;37.858;2023-04-01T06:34:52;21.85;;;14.48;;
34673;SDS011;20879;55.668;37.858;2023-04-01T06:37:40;24.77;;;15.13;;
34673;SDS011;20879;55.668;37.858;2023-04-01T06:40:22;23.73;;;15.40;;
34673;SDS011;20879;55.668;37.858;2023-04-01T06:43:18;22.92;;;13.82;;
34673;SDS011;20879;55.668;37.858;2023-04-01T06:46:21;20.55;;;14.10;;
34673;SDS011;20879;55.668;37.858;2023-04-01T06:49:26;22.85;;;14.95;;
34673;SDS011;20879;55.668;37.858;2023-04-01T06:52:23;20.63;;;13.88;;
34673;SDS011;20879;55.668;37.858;2023-04-01T06:55:43;20.02;;;13.15;;
34673;SDS011;20879;55.668;37.858;2023-04-01T06:58:54;20.50;;;13.60;;
34673;SDS011;20879;55.668;37.858;2023-04-01T07:01:32;21.38;;;13.32;;
34673;SDS011;20879;55.668;37.858;2023-04-01T07:04:05;22.60;;;13.38;;
34673;SDS011;20879;55.668;37.858;2023-04-01T07:06:40;18.80;;;12.85;;
34673;SDS011;20879;55.668;37.858;2023-04-01T07:09:16;24.33;;;13.73;;
34673;SDS011;20879;55.668;37.858;2023-04-01T07:12:10;24.75;;;15.52;;
34673;SDS011;20879;55.668;37.858;2023-04-01T07:15:09;21.45;;;13.60;;
34673;SDS011;20879;55.668;37.858;2023-04-01T07:17:50;20.33;;;13.98;;
34673;SDS011;20879;55.668;37.858;2023-04-01T07:20:23;20.52;;;13.40;;
34673;SDS011;20879;55.668;37.858;2023-04-01T07:22:59;19.88;;;13.52;;
34673;SDS011;20879;55.668;37.858;2023-04-01T07:26:20;19.55;;;13.10;;
34673;SDS011;20879;55.668;37.858;2023-04-01T07:28:52;20.85;;;12.73;;
34673;SDS011;20879;55.668;37.858;2023-04-01T07:31:39;20.83;;;13.30;;
34673;SDS011;20879;55.668;37.858;2023-04-01T07:34:40;18.85;;;12.15;;
34673;SDS011;20879;55.668;37.858;2023-04-01T07:37:30;18.05;;;11.38;;
34673;SDS011;20879;55.668;37.858;2023-04-01T07:40:10;17.15;;;11.18;;
34673;SDS011;20879;55.668;37.858;2023-04-01T07:42:57;22.25;;;13.43;;
34673;SDS011;20879;55.668;37.858;2023-04-01T07:45:51;20.70;;;12.50;;
34673;SDS011;20879;55.668;37.858;2023-04-01T07:48:37;18.52;;;11.88;;
34673;SDS011;20879;55.668;37.858;2023-04-01T07:51:15;15.93;;;11.23;;
34673;SDS011;20879;55.668;37.858;2023-04-01T07:53:53;17.63;;;11.40;;
34673;SDS011;20879;55.668;37.858;2023-04-01T07:56:37;17.77;;;10.80;;
34673;SDS011;20879;55.668;37.858;2023-04-01T07:59:19;18.20;;;12.32;;
34673;SDS011;20879;55.668;37.858;2023-04-01T08:02:05;16.85;;;12.13;;
34673;SDS011;20879;55.668;37.858;2023-04-01T08:07:22;21.10;;;12.27;;
34673;SDS011;20879;55.668;37.858;2023-04-01T08:10:19;18.02;;;11.48;;
34673;SDS011;20879;55.668;37.858;2023-04-01T08:16:16;20.75;;;13.50;;
34673;SDS011;20879;55.668;37.858;2023-04-01T08:18:55;19.02;;;12.88;;
34673;SDS011;20879;55.668;37.858;2023-04-01T08:21:35;20.40;;;13.20;;
34673;SDS011;20879;55.668;37.858;2023-04-01T08:24:16;19.17;;;12.38;;
34673;SDS011;20879;55.668;37.858;2023-04-01T08:27:01;22.00;;;13.20;;
34673;SDS011;20879;55.668;37.858;2023-04-01T08:29:39;19.60;;;13.00;;
34673;SDS011;20879;55.668;37.858;2023-04-01T08:32:16;23.40;;;13.57;;
34673;SDS011;20879;55.668;37.858;2023-04-01T08:34:54;19.73;;;12.93;;
34673;SDS011;20879;55.668;37.858;2023-04-01T08:37:35;19.13;;;13.13;;
34673;SDS011;20879;55.668;37.858;2023-04-01T08:49:56;21.63;;;13.77;;
34673;SDS011;20879;55.668;37.858;2023-04-01T08:53:06;21.30;;;13.25;;
34673;SDS011;20879;55.668;37.858;2023-04-01T08:55:51;23.35;;;13.55;;
34673;SDS011;20879;55.668;37.858;2023-04-01T09:01:55;23.58;;;14.13;;
34673;SDS011;20879;55.668;37.858;2023-04-01T09:08:24;21.10;;;12.43;;
34673;SDS011;20879;55.668;37.858;2023-04-01T09:14:29;22.25;;;13.00;;
34673;SDS011;20879;55.668;37.858;2023-04-01T09:17:23;21.42;;;13.35;;
34673;SDS011;20879;55.668;37.858;2023-04-01T09:20:04;20.90;;;12.15;;
34673;SDS011;20879;55.668;37.858;2023-04-01T09:22:50;17.88;;;12.32;;
34673;SDS011;20879;55.668;37.858;2023-04-01T09:31:10;17.88;;;10.57;;
34673;SDS011;20879;55.668;37.858;2023-04-01T09:37:34;17.35;;;10.90;;
34673;SDS011;20879;55.668;37.858;2023-04-01T09:40:15;17.67;;;11.20;;
34673;SDS011;20879;55.668;37.858;2023-04-01T09:46:02;19.08;;;10.85;;
34673;SDS011;20879;55.668;37.858;2023-04-01T09:48:48;15.85;;;10.52;;
34673;SDS011;20879;55.668;37.858;2023-04-01T09:51:45;17.42;;;10.95;;
34673;SDS011;20879;55.668;37.858;2023-04-01T09:54:31;16.05;;;10.25;;
34673;SDS011;20879;55.668;37.858;2023-04-01T10:06:58;14.07;;;7.93;;
34673;SDS011;20879;55.668;37.858;2023-04-01T10:13:00;12.80;;;7.57;;
34673;SDS011;20879;55.668;37.858;2023-04-01T10:19:39;12.73;;;7.63;;
34673;SDS011;20879;55.668;37.858;2023-04-01T10:25:53;12.60;;;7.45;;
34673;SDS011;20879;55.668;37.858;2023-04-01T10:28:47;11.77;;;7.50;;
34673;SDS011;20879;55.668;37.858;2023-04-01T10:31:36;13.25;;;7.30;;
34673;SDS011;20879;55.668;37.858;2023-04-01T10:40:57;13.23;;;7.10;;
34673;SDS011;20879;55.668;37.858;2023-04-01T10:47:48;9.52;;;6.00;;
34673;SDS011;20879;55.668;37.858;2023-04-01T10:57:30;9.95;;;5.63;;
34673;SDS011;20879;55.668;37.858;2023-04-01T11:00:45;12.00;;;6.15;;
34673;SDS011;20879;55.668;37.858;2023-04-01T11:16:52;9.48;;;5.97;;
34673;SDS011;20879;55.668;37.858;2023-04-01T11:22:57;9.30;;;5.72;;
34673;SDS011;20879;55.668;37.858;2023-04-01T11:25:50;10.77;;;5.53;;
34673;SDS011;20879;55.668;37.858;2023-04-01T11:29:00;8.02;;;5.00;;
34673;SDS011;20879;55.668;37.858;2023-04-01T11:31:43;8.32;;;4.72;;
34673;SDS011;20879;55.668;37.858;2023-04-01T11:34:32;10.23;;;5.40;;
34673;SDS011;20879;55.668;37.858;2023-04-01T11:37:27;8.13;;;4.90;;
34673;SDS011;20879;55.668;37.858;2023-04-01T11:40:33;7.28;;;4.82;;
34673;SDS011;20879;55.668;37.858;2023-04-01T11:43:29;10.95;;;6.03;;
34673;SDS011;20879;55.668;37.858;2023-04-01T11:46:23;9.60;;;5.38;;
34673;SDS011;20879;55.668;37.858;2023-04-01T11:49:02;9.20;;;5.28;;
34673;SDS011;20879;55.668;37.858;2023-04-01T11:55:15;7.63;;;4.78;;
34673;SDS011;20879;55.668;37.858;2023-04-01T11:57:58;8.38;;;4.93;;
34673;SDS011;20879;55.668;37.858;2023-04-01T12:00:52;12.13;;;4.90;;
34673;SDS011;20879;55.668;37.858;2023-04-01T12:03:42;8.18;;;4.60;;
34673;SDS011;20879;55.668;37.858;2023-04-01T12:06:23;9.27;;;5.03;;
34673;SDS011;20879;55.668;37.858;2023-04-01T12:09:07;10.30;;;5.20;;
34673;SDS011;20879;55.668;37.858;2023-04-01T12:11:44;11.15;;;5.20;;
34673;SDS011;20879;55.668;37.858;2023-04-01T12:14:24;8.93;;;5.07;;
34673;SDS011;20879;55.668;37.858;2023-04-01T12:17:04;7.07;;;5.03;;
34673;SDS011;20879;55.668;37.858;2023-04-01T12:19:40;10.05;;;4.90;;
34673;SDS011;20879;55.668;37.858;2023-04-01T12:22:24;11.00;;;5.28;;
34673;SDS011;20879;55.668;37.858;2023-04-01T12:25:11;10.02;;;4.63;;
34673;SDS011;20879;55.668;37.858;2023-04-01T12:28:04;11.85;;;5.53;;
34673;SDS011;20879;55.668;37.858;2023-04-01T12:30:46;10.07;;;5.32;;
34673;SDS011;20879;55.668;37.858;2023-04-01T12:33:28;8.55;;;5.53;;
34673;SDS011;20879;55.668;37.858;2023-04-01T12:36:13;14.98;;;5.85;;
34673;SDS011;20879;55.668;37.858;2023-04-01T12:39:00;9.50;;;5.72;;
34673;SDS011;20879;55.668;37.858;2023-04-01T12:41:51;10.32;;;5.85;;
34673;SDS011;20879;55.668;37.858;2023-04-01T12:44:40;10.32;;;5.18;;
34673;SDS011;20879;55.668;37.858;2023-04-01T13:07:22;10.43;;;4.82;;
34673;SDS011;20879;55.668;37.858;2023-04-01T13:10:05;8.10;;;5.15;;
34673;SDS011;20879;55.668;37.858;2023-04-01T13:12:54;8.90;;;5.00;;
34673;SDS011;20879;55.668;37.858;2023-04-01T13:15:47;8.02;;;5.05;;
34673;SDS011;20879;55.668;37.858;2023-04-01T13:18:24;10.93;;;4.55;;
34673;SDS011;20879;55.668;37.858;2023-04-01T13:21:03;9.43;;;5.05;;
34673;SDS011;20879;55.668;37.858;2023-04-01T13:23:44;11.63;;;5.13;;
34673;SDS011;20879;55.668;37.858;2023-04-01T13:26:25;8.38;;;4.60;;
34673;SDS011;20879;55.668;37.858;2023-04-01T13:29:01;8.73;;;4.55;;
34673;SDS011;20879;55.668;37.858;2023-04-01T13:31:40;12.10;;;4.70;;
34673;SDS011;20879;55.668;37.858;2023-04-01T13:34:23;13.47;;;5.60;;
34673;SDS011;20879;55.668;37.858;2023-04-01T13:37:08;9.38;;;5.38;;
34673;SDS011;20879;55.668;37.858;2023-04-01T13:39:51;10.10;;;4.88;;
34673;SDS011;20879;55.668;37.858;2023-04-01T13:42:35;14.88;;;4.80;;
34673;SDS011;20879;55.668;37.858;2023-04-01T13:45:13;11.02;;;4.40;;
34673;SDS011;20879;55.668;37.858;2023-04-01T13:47:50;8.60;;;5.53;;
34673;SDS011;20879;55.668;37.858;2023-04-01T13:53:50;9.57;;;4.70;;
34673;SDS011;20879;55.668;37.858;2023-04-01T13:56:42;10.60;;;4.95;;
34673;SDS011;20879;55.668;37.858;2023-04-01T13:59:28;13.25;;;4.97;;
34673;SDS011;20879;55.668;37.858;2023-04-01T14:02:17;13.60;;;4.85;;
34673;SDS011;20879;55.668;37.858;2023-04-01T14:05:13;12.35;;;5.20;;
34673;SDS011;20879;55.668;37.858;2023-04-01T14:08:17;8.30;;;4.90;;
34673;SDS011;20879;55.668;37.858;2023-04-01T14:10:58;7.10;;;4.85;;
34673;SDS011;20879;55.668;37.858;2023-04-01T14:13:40;8.75;;;5.20;;
34673;SDS011;20879;55.668;37.858;2023-04-01T14:16:25;11.48;;;5.65;;
34673;SDS011;20879;55.668;37.858;2023-04-01T14:19:27;8.38;;;5.13;;
34673;SDS011;20879;55.668;37.858;2023-04-01T14:22:10;18.90;;;6.03;;
34673;SDS011;20879;55.668;37.858;2023-04-01T14:24:53;9.05;;;5.43;;
34673;SDS011;20879;55.668;37.858;2023-04-01T14:27:41;10.25;;;5.20;;
34673;SDS011;20879;55.668;37.858;2023-04-01T14:30:27;19.85;;;5.47;;
34673;SDS011;20879;55.668;37.858;2023-04-01T14:33:10;19.30;;;7.57;;
34673;SDS011;20879;55.668;37.858;2023-04-01T14:36:05;9.52;;;5.55;;
34673;SDS011;20879;55.668;37.858;2023-04-01T14:38:55;8.80;;;5.95;;
34673;SDS011;20879;55.668;37.858;2023-04-01T14:41:40;12.18;;;6.30;;
34673;SDS011;20879;55.668;37.858;2023-04-01T14:44:18;8.95;;;6.00;;
34673;SDS011;20879;55.668;37.858;2023-04-01T14:47:22;11.13;;;6.47;;
34673;SDS011;20879;55.668;37.858;2023-04-01T14:50:15;11.25;;;6.25;;
34673;SDS011;20879;55.668;37.858;2023-04-01T14:52:56;16.15;;;6.68;;
34673;SDS011;20879;55.668;37.858;2023-04-01T14:55:29;14.55;;;7.35;;
34673;SDS011;20879;55.668;37.858;2023-04-01T14:58:09;9.73;;;6.40;;
34673;SDS011;20879;55.668;37.858;2023-04-01T15:00:48;11.02;;;7.07;;
34673;SDS011;20879;55.668;37.858;2023-04-01T15:06:20;20.35;;;7.28;;
34673;SDS011;20879;55.668;37.858;2023-04-01T15:09:14;11.48;;;6.78;;
34673;SDS011;20879;55.668;37.858;2023-04-01T15:11:52;11.93;;;7.78;;
34673;SDS011;20879;55.668;37.858;2023-04-01T15:17:43;16.35;;;9.45;;
34673;SDS011;20879;55.668;37.858;2023-04-01T15:20:38;13.90;;;8.90;;
34673;SDS011;20879;55.668;37.858;2023-04-01T15:23:28;16.02;;;10.23;;
34673;SDS011;20879;55.668;37.858;2023-04-01T15:26:17;14.82;;;10.23;;
34673;SDS011;20879;55.668;37.858;2023-04-01T15:29:01;17.27;;;11.25;;
34673;SDS011;20879;55.668;37.858;2023-04-01T15:31:48;15.45;;;10.85;;
34673;SDS011;20879;55.668;37.858;2023-04-01T15:34:26;16.73;;;10.43;;
34673;SDS011;20879;55.668;37.858;2023-04-01T15:37:08;14.57;;;9.85;;
34673;SDS011;20879;55.668;37.858;2023-04-01T15:39:51;15.05;;;10.65;;
34673;SDS011;20879;55.668;37.858;2023-04-01T15:42:40;16.88;;;10.55;;
34673;SDS011;20879;55.668;37.858;2023-04-01T15:45:24;16.50;;;11.52;;
34673;SDS011;20879;55.668;37.858;2023-04-01T15:48:14;16.83;;;10.82;;
34673;SDS011;20879;55.668;37.858;2023-04-01T15:54:20;15.75;;;11.15;;
34673;SDS011;20879;55.668;37.858;2023-04-01T15:57:07;17.15;;;11.90;;
34673;SDS011;20879;55.668;37.858;2023-04-01T15:59:49;17.27;;;11.35;;
34673;SDS011;20879;55.668;37.858;2023-04-01T16:02:40;15.85;;;12.05;;
34673;SDS011;20879;55.668;37.858;2023-04-01T16:05:25;16.73;;;12.18;;
34673;SDS011;20879;55.668;37.858;2023-04-01T16:08:18;18.00;;;12.52;;
34673;SDS011;20879;55.668;37.858;2023-04-01T16:11:13;16.20;;;11.77;;
34673;SDS011;20879;55.668;37.858;2023-04-01T16:13:52;15.63;;;11.85;;
34673;SDS011;20879;55.668;37.858;2023-04-01T16:16:43;16.33;;;11.32;;
34673;SDS011;20879;55.668;37.858;2023-04-01T16:19:31;16.13;;;12.13;;
34673;SDS011;20879;55.668;37.858;2023-04-01T16:22:05;16.80;;;11.77;;
34673;SDS011;20879;55.668;37.858;2023-04-01T16:24:39;17.00;;;10.73;;
34673;SDS011;20879;55.668;37.858;2023-04-01T16:27:14;16.25;;;11.27;;
34673;SDS011;20879;55.668;37.858;2023-04-01T16:29:55;19.10;;;12.18;;
34673;SDS011;20879;55.668;37.858;2023-04-01T16:32:34;15.85;;;11.20;;
34673;SDS011;20879;55.668;37.858;2023-04-01T16:38:07;16.17;;;10.23;;
34673;SDS011;20879;55.668;37.858;2023-04-01T16:40:47;17.42;;;10.95;;
34673;SDS011;20879;55.668;37.858;2023-04-01T16:43:38;17.52;;;11.02;;
34673;SDS011;20879;55.668;37.858;2023-04-01T16:46:25;17.70;;;11.20;;
34673;SDS011;20879;55.668;37.858;2023-04-01T16:49:03;15.77;;;10.93;;
34673;SDS011;20879;55.668;37.858;2023-04-01T16:51:45;14.75;;;10.27;;
34673;SDS011;20879;55.668;37.858;2023-04-01T16:54:18;18.63;;;11.20;;
34673;SDS011;20879;55.668;37.858;2023-04-01T16:57:02;15.65;;;10.65;;
34673;SDS011;20879;55.668;37.858;2023-04-01T16:59:46;18.75;;;12.82;;
34673;SDS011;20879;55.668;37.858;2023-04-01T17:02:33;19.13;;;11.40;;
34673;SDS011;20879;55.668;37.858;2023-04-01T17:05:07;15.63;;;10.38;;
34673;SDS011;20879;55.668;37.858;2023-04-01T17:07:43;16.00;;;10.48;;
34673;SDS011;20879;55.668;37.858;2023-04-01T17:10:29;13.45;;;10.00;;
34673;SDS011;20879;55.668;37.858;2023-04-01T17:13:20;14.20;;;10.07;;
34673;SDS011;20879;55.668;37.858;2023-04-01T17:19:18;16.63;;;11.30;;
34673;SDS011;20879;55.668;37.858;2023-04-01T17:22:01;14.65;;;10.55;;
34673;SDS011;20879;55.668;37.858;2023-04-01T17:24:54;16.45;;;10.65;;
34673;SDS011;20879;55.668;37.858;2023-04-01T17:27:40;13.40;;;9.55;;
34673;SDS011;20879;55.668;37.858;2023-04-01T17:30:28;14.95;;;9.07;;
34673;SDS011;20879;55.668;37.858;2023-04-01T17:36:23;16.60;;;9.82;;
34673;SDS011;20879;55.668;37.858;2023-04-01T17:42:07;11.63;;;8.60;;
34673;SDS011;20879;55.668;37.858;2023-04-01T17:44:48;14.50;;;8.77;;
34673;SDS011;20879;55.668;37.858;2023-04-01T17:47:25;14.82;;;8.63;;
34673;SDS011;20879;55.668;37.858;2023-04-01T17:50:02;13.95;;;8.82;;
34673;SDS011;20879;55.668;37.858;2023-04-01T17:52:45;13.52;;;8.65;;
34673;SDS011;20879;55.668;37.858;2023-04-01T17:55:27;16.35;;;9.98;;
34673;SDS011;20879;55.668;37.858;2023-04-01T17:58:13;13.07;;;8.45;;
34673;SDS011;20879;55.668;37.858;2023-04-01T18:00:56;12.77;;;8.70;;
34673;SDS011;20879;55.668;37.858;2023-04-01T18:03:40;15.82;;;8.55;;
34673;SDS011;20879;55.668;37.858;2023-04-01T18:06:33;14.20;;;9.15;;
34673;SDS011;20879;55.668;37.858;2023-04-01T18:09:16;14.57;;;9.20;;
34673;SDS011;20879;55.668;37.858;2023-04-01T18:11:59;14.10;;;8.52;;